sensor_id;sensor_type;location;lat;lon;timestamp;P1;durP1;ratioP1;P2;durP2;ratioP2
71869;SDS011;59739;47.696;11.746;2022-12-18T00:01:13;13.20;;;7.45;;
71869;SDS011;59739;47.696;11.746;2022-12-18T00:03:43;16.35;;;7.47;;
71869;SDS011;59739;47.696;11.746;2022-12-18T00:06:10;16.35;;;6.75;;
71869;SDS011;59739;47.696;11.746;2022-12-18T00:08:37;12.63;;;6.28;;
71869;SDS011;59739;47.696;11.746;2022-12-18T00:11:07;12.48;;;7.03;;
71869;SDS011;59739;47.696;11.746;2022-12-18T00:13:38;12.35;;;6.45;;
71869;SDS011;59739;47.696;11.746;2022-12-18T00:16:05;13.88;;;6.72;;
71869;SDS011;59739;47.696;11.746;2022-12-18T00:18:34;10.90;;;6.15;;
71869;SDS011;59739;47.696;11.746;2022-12-18T00:21:01;12.68;;;6.15;;
71869;SDS011;59739;47.696;11.746;2022-12-18T00:23:30;13.50;;;6.25;;
71869;SDS011;59739;47.696;11.746;2022-12-18T00:26:00;12.65;;;6.45;;
71869;SDS011;59739;47.696;11.746;2022-12-18T00:28:28;14.30;;;7.13;;
71869;SDS011;59739;47.696;11.746;2022-12-18T00:31:05;13.18;;;6.85;;
71869;SDS011;59739;47.696;11.746;2022-12-18T00:33:33;10.20;;;5.72;;
71869;SDS011;59739;47.696;11.746;2022-12-18T00:38:31;15.20;;;6.18;;
71869;SDS011;59739;47.696;11.746;2022-12-18T00:40:58;10.73;;;6.15;;
71869;SDS011;59739;47.696;11.746;2022-12-18T00:43:24;11.68;;;5.43;;
71869;SDS011;59739;47.696;11.746;2022-12-18T00:45:51;12.02;;;6.03;;
71869;SDS011;59739;47.696;11.746;2022-12-18T00:48:18;10.65;;;6.40;;
71869;SDS011;59739;47.696;11.746;2022-12-18T00:50:44;11.35;;;5.55;;
71869;SDS011;59739;47.696;11.746;2022-12-18T00:53:11;8.77;;;5.25;;
71869;SDS011;59739;47.696;11.746;2022-12-18T00:55:37;12.13;;;5.45;;
71869;SDS011;59739;47.696;11.746;2022-12-18T00:58:05;10.85;;;5.35;;
71869;SDS011;59739;47.696;11.746;2022-12-18T01:00:30;11.75;;;6.03;;
71869;SDS011;59739;47.696;11.746;2022-12-18T01:02:56;12.00;;;5.75;;
71869;SDS011;59739;47.696;11.746;2022-12-18T01:05:23;9.45;;;5.63;;
71869;SDS011;59739;47.696;11.746;2022-12-18T01:07:51;13.45;;;6.15;;
71869;SDS011;59739;47.696;11.746;2022-12-18T01:10:18;10.88;;;5.32;;
71869;SDS011;59739;47.696;11.746;2022-12-18T01:12:44;11.32;;;5.82;;
71869;SDS011;59739;47.696;11.746;2022-12-18T01:15:11;11.23;;;5.03;;
71869;SDS011;59739;47.696;11.746;2022-12-18T01:17:38;9.65;;;5.05;;
71869;SDS011;59739;47.696;11.746;2022-12-18T01:20:05;10.95;;;5.30;;
71869;SDS011;59739;47.696;11.746;2022-12-18T01:22:32;8.68;;;4.68;;
71869;SDS011;59739;47.696;11.746;2022-12-18T01:24:59;9.98;;;5.28;;
71869;SDS011;59739;47.696;11.746;2022-12-18T01:27:25;7.30;;;4.45;;
71869;SDS011;59739;47.696;11.746;2022-12-18T01:29:51;11.00;;;5.30;;
71869;SDS011;59739;47.696;11.746;2022-12-18T01:32:18;8.85;;;5.13;;
71869;SDS011;59739;47.696;11.746;2022-12-18T01:34:45;10.07;;;5.60;;
71869;SDS011;59739;47.696;11.746;2022-12-18T01:37:11;9.32;;;4.47;;
71869;SDS011;59739;47.696;11.746;2022-12-18T01:39:37;8.40;;;5.13;;
71869;SDS011;59739;47.696;11.746;2022-12-18T01:42:03;10.27;;;5.30;;
71869;SDS011;59739;47.696;11.746;2022-12-18T01:47:26;8.23;;;4.65;;
71869;SDS011;59739;47.696;11.746;2022-12-18T01:49:59;8.98;;;5.20;;
71869;SDS011;59739;47.696;11.746;2022-12-18T01:52:29;9.63;;;5.43;;
71869;SDS011;59739;47.696;11.746;2022-12-18T01:54:57;9.82;;;5.28;;
71869;SDS011;59739;47.696;11.746;2022-12-18T01:57:25;17.80;;;6.63;;
71869;SDS011;59739;47.696;11.746;2022-12-18T01:59:52;36.25;;;11.32;;
71869;SDS011;59739;47.696;11.746;2022-12-18T02:02:21;22.98;;;7.72;;
71869;SDS011;59739;47.696;11.746;2022-12-18T02:04:47;18.25;;;6.65;;
71869;SDS011;59739;47.696;11.746;2022-12-18T02:09:50;8.27;;;4.63;;
71869;SDS011;59739;47.696;11.746;2022-12-18T02:12:53;13.93;;;5.93;;
71869;SDS011;59739;47.696;11.746;2022-12-18T02:18:56;11.95;;;5.57;;
71869;SDS011;59739;47.696;11.746;2022-12-18T02:24:26;8.43;;;4.75;;
71869;SDS011;59739;47.696;11.746;2022-12-18T02:27:13;10.57;;;5.55;;
71869;SDS011;59739;47.696;11.746;2022-12-18T02:29:42;10.75;;;4.35;;
71869;SDS011;59739;47.696;11.746;2022-12-18T02:32:18;9.15;;;4.65;;
71869;SDS011;59739;47.696;11.746;2022-12-18T02:34:52;9.07;;;4.20;;
71869;SDS011;59739;47.696;11.746;2022-12-18T02:37:22;7.80;;;4.90;;
71869;SDS011;59739;47.696;11.746;2022-12-18T02:39:52;9.52;;;4.78;;
71869;SDS011;59739;47.696;11.746;2022-12-18T02:42:22;8.35;;;4.15;;
71869;SDS011;59739;47.696;11.746;2022-12-18T02:44:49;6.95;;;4.57;;
71869;SDS011;59739;47.696;11.746;2022-12-18T02:47:22;9.10;;;5.03;;
71869;SDS011;59739;47.696;11.746;2022-12-18T02:56:18;5.88;;;3.85;;
71869;SDS011;59739;47.696;11.746;2022-12-18T03:01:43;7.68;;;3.67;;
71869;SDS011;59739;47.696;11.746;2022-12-18T03:04:57;8.20;;;3.25;;
71869;SDS011;59739;47.696;11.746;2022-12-18T03:07:41;8.05;;;4.82;;
71869;SDS011;59739;47.696;11.746;2022-12-18T03:10:14;6.10;;;3.40;;
71869;SDS011;59739;47.696;11.746;2022-12-18T03:12:53;9.38;;;5.43;;
71869;SDS011;59739;47.696;11.746;2022-12-18T03:15:34;5.82;;;3.85;;
71869;SDS011;59739;47.696;11.746;2022-12-18T03:18:10;8.85;;;4.85;;
71869;SDS011;59739;47.696;11.746;2022-12-18T03:20:40;7.32;;;4.30;;
71869;SDS011;59739;47.696;11.746;2022-12-18T03:25:46;7.38;;;3.85;;
71869;SDS011;59739;47.696;11.746;2022-12-18T03:28:15;8.75;;;4.85;;
71869;SDS011;59739;47.696;11.746;2022-12-18T03:30:47;8.50;;;4.57;;
71869;SDS011;59739;47.696;11.746;2022-12-18T03:33:31;7.40;;;4.75;;
71869;SDS011;59739;47.696;11.746;2022-12-18T03:36:12;10.98;;;4.90;;
71869;SDS011;59739;47.696;11.746;2022-12-18T03:38:38;12.07;;;4.97;;
71869;SDS011;59739;47.696;11.746;2022-12-18T03:47:13;7.82;;;4.22;;
71869;SDS011;59739;47.696;11.746;2022-12-18T03:52:41;9.25;;;4.43;;
71869;SDS011;59739;47.696;11.746;2022-12-18T03:55:26;8.45;;;4.30;;
71869;SDS011;59739;47.696;11.746;2022-12-18T03:57:59;7.38;;;4.28;;
71869;SDS011;59739;47.696;11.746;2022-12-18T04:00:38;6.85;;;3.75;;
71869;SDS011;59739;47.696;11.746;2022-12-18T04:03:07;10.05;;;4.90;;
71869;SDS011;59739;47.696;11.746;2022-12-18T04:05:45;7.70;;;4.50;;
71869;SDS011;59739;47.696;11.746;2022-12-18T04:08:17;6.65;;;4.25;;
71869;SDS011;59739;47.696;11.746;2022-12-18T04:10:51;8.38;;;4.43;;
71869;SDS011;59739;47.696;11.746;2022-12-18T04:13:24;8.85;;;4.97;;
71869;SDS011;59739;47.696;11.746;2022-12-18T04:15:59;10.30;;;5.47;;
71869;SDS011;59739;47.696;11.746;2022-12-18T04:18:26;11.55;;;6.25;;
71869;SDS011;59739;47.696;11.746;2022-12-18T04:20:52;10.88;;;5.50;;
71869;SDS011;59739;47.696;11.746;2022-12-18T04:23:19;14.13;;;5.63;;
71869;SDS011;59739;47.696;11.746;2022-12-18T04:25:46;9.60;;;5.28;;
71869;SDS011;59739;47.696;11.746;2022-12-18T04:28:17;7.75;;;4.68;;
71869;SDS011;59739;47.696;11.746;2022-12-18T04:30:44;7.57;;;4.70;;
71869;SDS011;59739;47.696;11.746;2022-12-18T04:33:14;7.50;;;5.00;;
71869;SDS011;59739;47.696;11.746;2022-12-18T04:35:42;8.68;;;5.13;;
71869;SDS011;59739;47.696;11.746;2022-12-18T04:38:08;9.85;;;4.70;;
71869;SDS011;59739;47.696;11.746;2022-12-18T04:40:36;12.15;;;5.15;;
71869;SDS011;59739;47.696;11.746;2022-12-18T04:43:08;10.00;;;4.72;;
71869;SDS011;59739;47.696;11.746;2022-12-18T04:45:34;9.15;;;4.95;;
71869;SDS011;59739;47.696;11.746;2022-12-18T04:48:00;8.18;;;4.13;;
71869;SDS011;59739;47.696;11.746;2022-12-18T04:50:28;8.05;;;4.40;;
71869;SDS011;59739;47.696;11.746;2022-12-18T04:52:55;9.02;;;4.63;;
71869;SDS011;59739;47.696;11.746;2022-12-18T04:55:21;12.25;;;6.00;;
71869;SDS011;59739;47.696;11.746;2022-12-18T04:57:50;9.00;;;4.90;;
71869;SDS011;59739;47.696;11.746;2022-12-18T05:00:17;9.68;;;4.28;;
71869;SDS011;59739;47.696;11.746;2022-12-18T05:02:43;7.78;;;4.22;;
71869;SDS011;59739;47.696;11.746;2022-12-18T05:05:09;7.93;;;5.05;;
71869;SDS011;59739;47.696;11.746;2022-12-18T05:07:35;10.00;;;4.68;;
71869;SDS011;59739;47.696;11.746;2022-12-18T05:10:01;10.50;;;4.90;;
71869;SDS011;59739;47.696;11.746;2022-12-18T05:12:28;10.43;;;4.93;;
71869;SDS011;59739;47.696;11.746;2022-12-18T05:14:53;8.93;;;4.65;;
71869;SDS011;59739;47.696;11.746;2022-12-18T05:17:19;7.72;;;4.57;;
71869;SDS011;59739;47.696;11.746;2022-12-18T05:19:45;8.98;;;5.00;;
71869;SDS011;59739;47.696;11.746;2022-12-18T05:22:11;13.93;;;6.00;;
71869;SDS011;59739;47.696;11.746;2022-12-18T05:24:37;10.40;;;5.20;;
71869;SDS011;59739;47.696;11.746;2022-12-18T05:27:03;8.57;;;5.30;;
71869;SDS011;59739;47.696;11.746;2022-12-18T05:29:29;9.05;;;4.72;;
71869;SDS011;59739;47.696;11.746;2022-12-18T05:31:55;10.05;;;5.63;;
71869;SDS011;59739;47.696;11.746;2022-12-18T05:34:21;10.63;;;4.90;;
71869;SDS011;59739;47.696;11.746;2022-12-18T05:36:47;12.55;;;7.03;;
71869;SDS011;59739;47.696;11.746;2022-12-18T05:39:13;15.75;;;7.28;;
71869;SDS011;59739;47.696;11.746;2022-12-18T05:41:39;12.10;;;6.28;;
71869;SDS011;59739;47.696;11.746;2022-12-18T05:44:05;11.18;;;5.30;;
71869;SDS011;59739;47.696;11.746;2022-12-18T05:46:31;9.48;;;5.25;;
71869;SDS011;59739;47.696;11.746;2022-12-18T05:48:59;8.45;;;5.07;;
71869;SDS011;59739;47.696;11.746;2022-12-18T05:51:26;8.48;;;5.10;;
71869;SDS011;59739;47.696;11.746;2022-12-18T05:53:52;9.32;;;4.63;;
71869;SDS011;59739;47.696;11.746;2022-12-18T05:56:20;8.02;;;4.72;;
71869;SDS011;59739;47.696;11.746;2022-12-18T05:58:47;7.32;;;4.38;;
71869;SDS011;59739;47.696;11.746;2022-12-18T06:01:17;7.60;;;4.30;;
71869;SDS011;59739;47.696;11.746;2022-12-18T06:03:49;9.55;;;4.78;;
71869;SDS011;59739;47.696;11.746;2022-12-18T06:06:19;6.88;;;3.97;;
71869;SDS011;59739;47.696;11.746;2022-12-18T06:11:16;9.07;;;4.38;;
71869;SDS011;59739;47.696;11.746;2022-12-18T06:13:45;7.23;;;3.97;;
71869;SDS011;59739;47.696;11.746;2022-12-18T06:16:12;7.15;;;3.65;;
71869;SDS011;59739;47.696;11.746;2022-12-18T06:18:38;8.30;;;4.28;;
71869;SDS011;59739;47.696;11.746;2022-12-18T06:21:04;7.68;;;4.35;;
71869;SDS011;59739;47.696;11.746;2022-12-18T06:23:31;10.23;;;4.93;;
71869;SDS011;59739;47.696;11.746;2022-12-18T06:25:57;9.07;;;4.63;;
71869;SDS011;59739;47.696;11.746;2022-12-18T06:28:23;7.20;;;3.47;;
71869;SDS011;59739;47.696;11.746;2022-12-18T06:30:49;8.82;;;5.13;;
71869;SDS011;59739;47.696;11.746;2022-12-18T06:33:15;11.32;;;5.30;;
71869;SDS011;59739;47.696;11.746;2022-12-18T06:35:42;9.90;;;5.00;;
71869;SDS011;59739;47.696;11.746;2022-12-18T06:38:08;9.52;;;4.95;;
71869;SDS011;59739;47.696;11.746;2022-12-18T06:40:34;10.10;;;4.93;;
71869;SDS011;59739;47.696;11.746;2022-12-18T06:43:01;11.05;;;4.63;;
71869;SDS011;59739;47.696;11.746;2022-12-18T06:45:27;5.50;;;3.80;;
71869;SDS011;59739;47.696;11.746;2022-12-18T06:47:53;8.52;;;4.13;;
71869;SDS011;59739;47.696;11.746;2022-12-18T06:50:19;6.32;;;4.63;;
71869;SDS011;59739;47.696;11.746;2022-12-18T06:52:45;7.10;;;4.13;;
71869;SDS011;59739;47.696;11.746;2022-12-18T06:55:11;8.05;;;4.55;;
71869;SDS011;59739;47.696;11.746;2022-12-18T06:57:37;8.07;;;4.25;;
71869;SDS011;59739;47.696;11.746;2022-12-18T07:00:04;6.85;;;4.07;;
71869;SDS011;59739;47.696;11.746;2022-12-18T07:02:32;7.72;;;4.32;;
71869;SDS011;59739;47.696;11.746;2022-12-18T07:04:58;4.45;;;2.75;;
71869;SDS011;59739;47.696;11.746;2022-12-18T07:07:24;6.97;;;3.88;;
71869;SDS011;59739;47.696;11.746;2022-12-18T07:09:50;8.27;;;4.63;;
71869;SDS011;59739;47.696;11.746;2022-12-18T07:12:16;8.20;;;4.95;;
71869;SDS011;59739;47.696;11.746;2022-12-18T07:14:43;8.73;;;4.75;;
71869;SDS011;59739;47.696;11.746;2022-12-18T07:17:09;9.13;;;5.00;;
71869;SDS011;59739;47.696;11.746;2022-12-18T07:19:35;7.22;;;4.30;;
71869;SDS011;59739;47.696;11.746;2022-12-18T07:22:01;8.85;;;5.00;;
71869;SDS011;59739;47.696;11.746;2022-12-18T07:24:27;10.52;;;5.60;;
71869;SDS011;59739;47.696;11.746;2022-12-18T07:26:53;9.38;;;5.75;;
71869;SDS011;59739;47.696;11.746;2022-12-18T07:29:20;8.75;;;4.55;;
71869;SDS011;59739;47.696;11.746;2022-12-18T07:31:46;10.07;;;5.35;;
71869;SDS011;59739;47.696;11.746;2022-12-18T07:34:12;12.45;;;5.88;;
71869;SDS011;59739;47.696;11.746;2022-12-18T07:36:40;10.93;;;5.72;;
71869;SDS011;59739;47.696;11.746;2022-12-18T07:39:06;9.63;;;5.53;;
71869;SDS011;59739;47.696;11.746;2022-12-18T07:41:32;10.23;;;5.30;;
71869;SDS011;59739;47.696;11.746;2022-12-18T07:44:08;9.90;;;4.80;;
71869;SDS011;59739;47.696;11.746;2022-12-18T07:46:36;7.30;;;4.63;;
71869;SDS011;59739;47.696;11.746;2022-12-18T07:49:02;7.28;;;4.35;;
71869;SDS011;59739;47.696;11.746;2022-12-18T07:51:28;8.55;;;3.65;;
71869;SDS011;59739;47.696;11.746;2022-12-18T07:53:54;6.55;;;4.00;;
71869;SDS011;59739;47.696;11.746;2022-12-18T07:56:20;6.68;;;3.78;;
71869;SDS011;59739;47.696;11.746;2022-12-18T07:58:46;7.18;;;3.45;;
71869;SDS011;59739;47.696;11.746;2022-12-18T08:01:12;5.55;;;3.83;;
71869;SDS011;59739;47.696;11.746;2022-12-18T08:03:39;7.55;;;3.65;;
71869;SDS011;59739;47.696;11.746;2022-12-18T08:06:06;5.13;;;3.30;;
71869;SDS011;59739;47.696;11.746;2022-12-18T08:08:34;6.90;;;3.53;;
71869;SDS011;59739;47.696;11.746;2022-12-18T08:11:01;6.30;;;3.97;;
71869;SDS011;59739;47.696;11.746;2022-12-18T08:13:27;5.18;;;3.55;;
71869;SDS011;59739;47.696;11.746;2022-12-18T08:15:57;6.65;;;3.72;;
71869;SDS011;59739;47.696;11.746;2022-12-18T08:18:29;5.63;;;3.33;;
71869;SDS011;59739;47.696;11.746;2022-12-18T08:21:07;10.00;;;4.00;;
71869;SDS011;59739;47.696;11.746;2022-12-18T08:23:34;5.75;;;3.40;;
71869;SDS011;59739;47.696;11.746;2022-12-18T08:26:01;5.25;;;3.17;;
71869;SDS011;59739;47.696;11.746;2022-12-18T08:28:27;6.55;;;3.78;;
71869;SDS011;59739;47.696;11.746;2022-12-18T08:30:53;6.40;;;3.72;;
71869;SDS011;59739;47.696;11.746;2022-12-18T08:33:19;6.72;;;4.05;;
71869;SDS011;59739;47.696;11.746;2022-12-18T08:35:45;4.70;;;3.30;;
71869;SDS011;59739;47.696;11.746;2022-12-18T08:38:10;7.00;;;3.42;;
71869;SDS011;59739;47.696;11.746;2022-12-18T08:40:37;6.25;;;3.90;;
71869;SDS011;59739;47.696;11.746;2022-12-18T08:43:02;7.30;;;3.97;;
71869;SDS011;59739;47.696;11.746;2022-12-18T08:45:51;8.15;;;4.35;;
71869;SDS011;59739;47.696;11.746;2022-12-18T08:48:18;7.28;;;4.75;;
71869;SDS011;59739;47.696;11.746;2022-12-18T08:50:52;9.07;;;4.38;;
71869;SDS011;59739;47.696;11.746;2022-12-18T08:53:20;8.63;;;4.75;;
71869;SDS011;59739;47.696;11.746;2022-12-18T08:55:49;7.30;;;4.10;;
71869;SDS011;59739;47.696;11.746;2022-12-18T08:58:15;8.45;;;4.80;;
71869;SDS011;59739;47.696;11.746;2022-12-18T09:00:41;9.10;;;4.88;;
71869;SDS011;59739;47.696;11.746;2022-12-18T09:03:13;9.73;;;5.25;;
71869;SDS011;59739;47.696;11.746;2022-12-18T09:05:41;6.55;;;4.18;;
71869;SDS011;59739;47.696;11.746;2022-12-18T09:08:07;8.27;;;4.47;;
71869;SDS011;59739;47.696;11.746;2022-12-18T09:10:34;9.68;;;5.18;;
71869;SDS011;59739;47.696;11.746;2022-12-18T09:13:06;8.10;;;4.05;;
71869;SDS011;59739;47.696;11.746;2022-12-18T09:15:32;7.10;;;4.38;;
71869;SDS011;59739;47.696;11.746;2022-12-18T09:17:58;5.90;;;4.28;;
71869;SDS011;59739;47.696;11.746;2022-12-18T09:20:24;7.53;;;3.95;;
71869;SDS011;59739;47.696;11.746;2022-12-18T09:22:49;7.50;;;4.15;;
71869;SDS011;59739;47.696;11.746;2022-12-18T09:25:15;8.82;;;3.97;;
71869;SDS011;59739;47.696;11.746;2022-12-18T09:27:41;9.68;;;4.40;;
71869;SDS011;59739;47.696;11.746;2022-12-18T09:30:07;6.85;;;3.63;;
71869;SDS011;59739;47.696;11.746;2022-12-18T09:32:34;6.50;;;3.75;;
71869;SDS011;59739;47.696;11.746;2022-12-18T09:35:00;7.68;;;3.65;;
71869;SDS011;59739;47.696;11.746;2022-12-18T09:37:26;5.93;;;3.67;;
71869;SDS011;59739;47.696;11.746;2022-12-18T09:39:52;4.95;;;3.28;;
71869;SDS011;59739;47.696;11.746;2022-12-18T09:42:20;6.93;;;3.63;;
71869;SDS011;59739;47.696;11.746;2022-12-18T09:44:49;6.00;;;3.38;;
71869;SDS011;59739;47.696;11.746;2022-12-18T09:47:23;6.63;;;3.55;;
71869;SDS011;59739;47.696;11.746;2022-12-18T09:50:04;5.70;;;2.92;;
71869;SDS011;59739;47.696;11.746;2022-12-18T09:58:00;5.47;;;3.10;;
71869;SDS011;59739;47.696;11.746;2022-12-18T10:00:51;4.75;;;3.13;;
71869;SDS011;59739;47.696;11.746;2022-12-18T10:03:18;4.57;;;3.10;;
71869;SDS011;59739;47.696;11.746;2022-12-18T10:05:53;5.82;;;2.95;;
71869;SDS011;59739;47.696;11.746;2022-12-18T10:11:38;6.13;;;3.53;;
71869;SDS011;59739;47.696;11.746;2022-12-18T10:20:41;4.40;;;2.80;;
71869;SDS011;59739;47.696;11.746;2022-12-18T10:23:26;4.78;;;2.50;;
71869;SDS011;59739;47.696;11.746;2022-12-18T10:26:23;4.43;;;2.42;;
71869;SDS011;59739;47.696;11.746;2022-12-18T10:28:50;4.10;;;2.25;;
71869;SDS011;59739;47.696;11.746;2022-12-18T10:31:19;5.68;;;3.03;;
71869;SDS011;59739;47.696;11.746;2022-12-18T10:33:48;4.30;;;2.58;;
71869;SDS011;59739;47.696;11.746;2022-12-18T10:36:14;4.22;;;2.92;;
71869;SDS011;59739;47.696;11.746;2022-12-18T10:38:40;5.22;;;2.80;;
71869;SDS011;59739;47.696;11.746;2022-12-18T10:43:47;4.03;;;2.60;;
71869;SDS011;59739;47.696;11.746;2022-12-18T10:46:19;8.27;;;5.18;;
71869;SDS011;59739;47.696;11.746;2022-12-18T10:51:19;5.90;;;3.10;;
71869;SDS011;59739;47.696;11.746;2022-12-18T10:53:50;4.55;;;3.17;;
71869;SDS011;59739;47.696;11.746;2022-12-18T10:56:20;11.00;;;6.82;;
71869;SDS011;59739;47.696;11.746;2022-12-18T10:58:55;16.02;;;7.85;;
71869;SDS011;59739;47.696;11.746;2022-12-18T11:01:48;16.77;;;9.02;;
71869;SDS011;59739;47.696;11.746;2022-12-18T11:09:29;13.38;;;6.57;;
71869;SDS011;59739;47.696;11.746;2022-12-18T11:14:42;12.20;;;6.22;;
71869;SDS011;59739;47.696;11.746;2022-12-18T11:20:01;10.35;;;4.95;;
71869;SDS011;59739;47.696;11.746;2022-12-18T11:22:32;8.02;;;5.03;;
71869;SDS011;59739;47.696;11.746;2022-12-18T11:25:05;9.05;;;4.70;;
71869;SDS011;59739;47.696;11.746;2022-12-18T11:27:41;5.07;;;3.10;;
71869;SDS011;59739;47.696;11.746;2022-12-18T11:30:26;7.38;;;3.05;;
71869;SDS011;59739;47.696;11.746;2022-12-18T11:33:15;5.32;;;3.47;;
71869;SDS011;59739;47.696;11.746;2022-12-18T11:35:52;5.18;;;2.90;;
71869;SDS011;59739;47.696;11.746;2022-12-18T11:38:32;4.47;;;2.70;;
71869;SDS011;59739;47.696;11.746;2022-12-18T11:41:23;4.80;;;2.30;;
71869;SDS011;59739;47.696;11.746;2022-12-18T11:44:22;2.70;;;2.00;;
71869;SDS011;59739;47.696;11.746;2022-12-18T11:47:20;3.05;;;1.80;;
71869;SDS011;59739;47.696;11.746;2022-12-18T11:49:50;5.95;;;2.15;;
71869;SDS011;59739;47.696;11.746;2022-12-18T11:55:30;3.38;;;2.30;;
71869;SDS011;59739;47.696;11.746;2022-12-18T11:58:19;3.92;;;2.45;;
71869;SDS011;59739;47.696;11.746;2022-12-18T12:04:30;4.85;;;2.50;;
71869;SDS011;59739;47.696;11.746;2022-12-18T12:13:06;3.80;;;2.20;;
71869;SDS011;59739;47.696;11.746;2022-12-18T12:16:03;3.28;;;2.10;;
71869;SDS011;59739;47.696;11.746;2022-12-18T12:18:54;2.00;;;1.40;;
71869;SDS011;59739;47.696;11.746;2022-12-18T12:21:58;2.60;;;1.40;;
71869;SDS011;59739;47.696;11.746;2022-12-18T12:33:32;2.92;;;1.40;;
71869;SDS011;59739;47.696;11.746;2022-12-18T12:36:49;2.70;;;2.20;;
71869;SDS011;59739;47.696;11.746;2022-12-18T12:39:35;1.52;;;1.40;;
71869;SDS011;59739;47.696;11.746;2022-12-18T12:42:05;2.88;;;1.73;;
71869;SDS011;59739;47.696;11.746;2022-12-18T12:45:03;2.33;;;1.38;;
71869;SDS011;59739;47.696;11.746;2022-12-18T12:47:39;1.65;;;1.35;;
71869;SDS011;59739;47.696;11.746;2022-12-18T12:50:13;1.77;;;1.20;;
71869;SDS011;59739;47.696;11.746;2022-12-18T12:52:43;2.88;;;1.50;;
71869;SDS011;59739;47.696;11.746;2022-12-18T12:55:24;2.28;;;1.40;;
71869;SDS011;59739;47.696;11.746;2022-12-18T13:00:55;2.58;;;1.40;;
71869;SDS011;59739;47.696;11.746;2022-12-18T13:06:33;4.22;;;2.17;;
71869;SDS011;59739;47.696;11.746;2022-12-18T13:09:23;6.72;;;3.72;;
71869;SDS011;59739;47.696;11.746;2022-12-18T13:11:49;9.15;;;4.90;;
71869;SDS011;59739;47.696;11.746;2022-12-18T13:14:35;16.35;;;9.40;;
71869;SDS011;59739;47.696;11.746;2022-12-18T13:17:37;25.85;;;13.07;;
71869;SDS011;59739;47.696;11.746;2022-12-18T13:20:04;24.65;;;12.63;;
71869;SDS011;59739;47.696;11.746;2022-12-18T13:22:48;25.73;;;12.93;;
71869;SDS011;59739;47.696;11.746;2022-12-18T13:28:14;27.20;;;14.60;;
71869;SDS011;59739;47.696;11.746;2022-12-18T13:30:52;29.73;;;14.15;;
71869;SDS011;59739;47.696;11.746;2022-12-18T13:36:01;19.73;;;10.63;;
71869;SDS011;59739;47.696;11.746;2022-12-18T13:41:44;11.98;;;6.82;;
71869;SDS011;59739;47.696;11.746;2022-12-18T13:44:13;11.18;;;6.60;;
71869;SDS011;59739;47.696;11.746;2022-12-18T13:47:04;13.90;;;7.00;;
71869;SDS011;59739;47.696;11.746;2022-12-18T13:49:49;29.08;;;12.95;;
71869;SDS011;59739;47.696;11.746;2022-12-18T13:52:16;33.45;;;16.63;;
71869;SDS011;59739;47.696;11.746;2022-12-18T13:54:53;33.65;;;16.13;;
71869;SDS011;59739;47.696;11.746;2022-12-18T13:57:29;33.10;;;18.15;;
71869;SDS011;59739;47.696;11.746;2022-12-18T13:59:57;36.35;;;18.33;;
71869;SDS011;59739;47.696;11.746;2022-12-18T14:02:39;32.97;;;16.17;;
71869;SDS011;59739;47.696;11.746;2022-12-18T14:08:01;35.95;;;17.95;;
71869;SDS011;59739;47.696;11.746;2022-12-18T14:13:13;36.13;;;16.20;;
71869;SDS011;59739;47.696;11.746;2022-12-18T14:15:54;34.83;;;15.88;;
71869;SDS011;59739;47.696;11.746;2022-12-18T14:21:06;34.83;;;16.55;;
71869;SDS011;59739;47.696;11.746;2022-12-18T14:23:41;33.10;;;16.27;;
71869;SDS011;59739;47.696;11.746;2022-12-18T14:26:27;33.80;;;15.90;;
71869;SDS011;59739;47.696;11.746;2022-12-18T14:28:56;34.88;;;17.98;;
71869;SDS011;59739;47.696;11.746;2022-12-18T14:31:43;38.80;;;18.65;;
71869;SDS011;59739;47.696;11.746;2022-12-18T14:34:16;34.85;;;17.02;;
71869;SDS011;59739;47.696;11.746;2022-12-18T14:36:51;31.25;;;17.45;;
71869;SDS011;59739;47.696;11.746;2022-12-18T14:39:18;36.50;;;17.42;;
71869;SDS011;59739;47.696;11.746;2022-12-18T14:41:44;39.30;;;18.52;;
71869;SDS011;59739;47.696;11.746;2022-12-18T14:44:11;34.00;;;16.25;;
71869;SDS011;59739;47.696;11.746;2022-12-18T14:46:38;38.13;;;18.58;;
71869;SDS011;59739;47.696;11.746;2022-12-18T14:49:24;34.17;;;17.90;;
71869;SDS011;59739;47.696;11.746;2022-12-18T14:51:57;31.83;;;15.73;;
71869;SDS011;59739;47.696;11.746;2022-12-18T14:54:31;29.08;;;14.23;;
71869;SDS011;59739;47.696;11.746;2022-12-18T14:57:05;30.17;;;14.27;;
71869;SDS011;59739;47.696;11.746;2022-12-18T14:59:42;34.10;;;18.05;;
71869;SDS011;59739;47.696;11.746;2022-12-18T15:05:00;33.97;;;18.83;;
71869;SDS011;59739;47.696;11.746;2022-12-18T15:07:39;32.05;;;17.58;;
71869;SDS011;59739;47.696;11.746;2022-12-18T15:12:49;33.97;;;17.13;;
71869;SDS011;59739;47.696;11.746;2022-12-18T15:23:20;34.55;;;16.45;;
71869;SDS011;59739;47.696;11.746;2022-12-18T15:28:35;35.80;;;19.80;;
71869;SDS011;59739;47.696;11.746;2022-12-18T15:34:22;40.95;;;20.88;;
71869;SDS011;59739;47.696;11.746;2022-12-18T15:36:24;35.53;;;18.40;;
71869;SDS011;59739;47.696;11.746;2022-12-18T15:38:53;38.20;;;18.92;;
71869;SDS011;59739;47.696;11.746;2022-12-18T15:41:22;33.88;;;16.35;;
71869;SDS011;59739;47.696;11.746;2022-12-18T15:43:50;35.70;;;19.20;;
71869;SDS011;59739;47.696;11.746;2022-12-18T15:46:18;29.67;;;15.32;;
71869;SDS011;59739;47.696;11.746;2022-12-18T15:48:48;30.45;;;16.80;;
71869;SDS011;59739;47.696;11.746;2022-12-18T15:51:29;32.42;;;16.00;;
71869;SDS011;59739;47.696;11.746;2022-12-18T15:53:59;33.95;;;19.10;;
71869;SDS011;59739;47.696;11.746;2022-12-18T15:56:28;28.73;;;15.77;;
71869;SDS011;59739;47.696;11.746;2022-12-18T15:59:14;26.30;;;13.57;;
71869;SDS011;59739;47.696;11.746;2022-12-18T16:01:46;27.43;;;14.57;;
71869;SDS011;59739;47.696;11.746;2022-12-18T16:04:15;21.48;;;12.32;;
71869;SDS011;59739;47.696;11.746;2022-12-18T16:06:45;18.90;;;10.80;;
71869;SDS011;59739;47.696;11.746;2022-12-18T16:09:12;21.23;;;11.70;;
71869;SDS011;59739;47.696;11.746;2022-12-18T16:11:39;17.92;;;9.45;;
71869;SDS011;59739;47.696;11.746;2022-12-18T16:14:27;17.17;;;8.85;;
71869;SDS011;59739;47.696;11.746;2022-12-18T16:17:03;20.20;;;8.63;;
71869;SDS011;59739;47.696;11.746;2022-12-18T16:20:26;12.60;;;6.93;;
71869;SDS011;59739;47.696;11.746;2022-12-18T16:22:52;15.02;;;9.07;;
71869;SDS011;59739;47.696;11.746;2022-12-18T16:25:19;15.77;;;7.70;;
71869;SDS011;59739;47.696;11.746;2022-12-18T16:27:51;17.63;;;8.45;;
71869;SDS011;59739;47.696;11.746;2022-12-18T16:30:20;14.63;;;8.88;;
71869;SDS011;59739;47.696;11.746;2022-12-18T16:32:59;19.85;;;10.13;;
71869;SDS011;59739;47.696;11.746;2022-12-18T16:35:25;18.20;;;11.52;;
71869;SDS011;59739;47.696;11.746;2022-12-18T16:37:52;14.40;;;9.23;;
71869;SDS011;59739;47.696;11.746;2022-12-18T16:40:18;14.82;;;8.95;;
71869;SDS011;59739;47.696;11.746;2022-12-18T16:42:45;13.40;;;8.43;;
71869;SDS011;59739;47.696;11.746;2022-12-18T16:45:15;15.10;;;9.32;;
71869;SDS011;59739;47.696;11.746;2022-12-18T16:47:42;18.10;;;9.57;;
71869;SDS011;59739;47.696;11.746;2022-12-18T16:50:09;12.90;;;7.85;;
71869;SDS011;59739;47.696;11.746;2022-12-18T16:52:35;13.32;;;6.78;;
71869;SDS011;59739;47.696;11.746;2022-12-18T16:55:01;10.57;;;5.65;;
71869;SDS011;59739;47.696;11.746;2022-12-18T16:57:28;7.38;;;4.88;;
71869;SDS011;59739;47.696;11.746;2022-12-18T16:59:54;10.02;;;5.40;;
71869;SDS011;59739;47.696;11.746;2022-12-18T17:02:22;8.02;;;4.70;;